createdAt,value
2023-04-11T00:02:05.004Z,4.63
2023-04-11T00:05:08.704Z,4.88
2023-04-11T00:08:11.526Z,4.70
2023-04-11T00:11:14.407Z,4.38
2023-04-11T00:14:19.233Z,4.60
2023-04-11T00:17:23.604Z,4.70
2023-04-11T00:20:26.484Z,4.90
2023-04-11T00:23:29.252Z,4.70
2023-04-11T00:26:32.022Z,4.93
2023-04-11T00:29:36.987Z,4.47
2023-04-11T00:32:39.806Z,5.45
2023-04-11T00:35:42.632Z,4.60
2023-04-11T00:38:46.297Z,4.30
2023-04-11T00:41:49.869Z,5.05
2023-04-11T00:44:54.046Z,4.57
2023-04-11T00:47:56.941Z,4.97
2023-04-11T00:51:00.009Z,4.97
2023-04-11T00:54:03.208Z,4.80
2023-04-11T00:57:07.177Z,5.05
2023-04-11T01:00:14.233Z,4.85
2023-04-11T01:03:19.310Z,4.05
2023-04-11T01:06:24.325Z,4.93
2023-04-11T01:09:28.419Z,4.60
2023-04-11T01:12:31.894Z,4.93
2023-04-11T01:15:36.356Z,4.32
2023-04-11T01:18:39.228Z,4.20
2023-04-11T01:21:42.866Z,4.90
2023-04-11T01:24:47.054Z,4.60
2023-04-11T01:27:50.200Z,4.93
2023-04-11T01:30:53.160Z,4.63
2023-04-11T01:33:56.538Z,5.03
2023-04-11T01:36:59.445Z,4.05
2023-04-11T01:40:05.459Z,4.53
2023-04-11T01:43:09.884Z,4.40
2023-04-11T01:46:13.949Z,4.32
2023-04-11T01:49:17.008Z,4.60
2023-04-11T01:52:19.725Z,4.30
2023-04-11T01:55:24.547Z,4.25
2023-04-11T01:58:27.391Z,4.28
2023-04-11T02:01:31.938Z,4.22
2023-04-11T02:04:34.923Z,4.18
2023-04-11T02:07:38.035Z,4.30
2023-04-11T02:10:42.274Z,4.05
2023-04-11T02:13:45.876Z,4.10
2023-04-11T02:16:53.038Z,4.53
2023-04-11T02:19:55.816Z,4.43
2023-04-11T02:22:58.929Z,4.80
2023-04-11T02:26:03.678Z,4.43
2023-04-11T02:29:06.521Z,3.97
2023-04-11T02:32:09.449Z,4.55
2023-04-11T02:35:12.362Z,4.10
2023-04-11T02:38:17.115Z,4.57
2023-04-11T02:41:21.324Z,4.35
2023-04-11T02:44:26.234Z,4.10
2023-04-11T02:47:30.820Z,4.28
2023-04-11T02:50:40.948Z,5.00
2023-04-11T02:53:44.326Z,4.18
2023-04-11T02:56:50.026Z,4.43
2023-04-11T02:59:53.136Z,4.50
2023-04-11T03:03:03.243Z,4.45
2023-04-11T03:06:11.500Z,4.40
2023-04-11T03:09:16.311Z,4.30
2023-04-11T03:12:21.144Z,3.90
2023-04-11T03:15:32.259Z,4.25
2023-04-11T03:18:39.594Z,4.13
2023-04-11T03:21:45.729Z,4.15
2023-04-11T03:24:49.805Z,4.28
2023-04-11T03:27:57.115Z,4.18
2023-04-11T03:31:00.060Z,3.97
2023-04-11T03:34:02.891Z,4.53
2023-04-11T03:37:06.013Z,4.43
2023-04-11T03:40:12.214Z,4.10
2023-04-11T03:43:20.995Z,4.22
2023-04-11T03:46:23.954Z,4.40
2023-04-11T03:49:26.858Z,4.30
2023-04-11T03:52:32.279Z,4.15
2023-04-11T03:55:35.434Z,3.97
2023-04-11T03:58:41.731Z,4.40
2023-04-11T04:01:45.289Z,4.60
2023-04-11T04:04:50.747Z,3.85
2023-04-11T04:07:59.233Z,4.25
2023-04-11T04:11:14.718Z,4.03
2023-04-11T04:14:20.152Z,4.63
2023-04-11T04:17:25.018Z,4.35
2023-04-11T04:20:28.537Z,3.95
2023-04-11T04:23:36.041Z,4.25
2023-04-11T04:27:12.840Z,3.90
2023-04-11T04:30:24.063Z,4.05
2023-04-11T04:33:42.894Z,4.18
2023-04-11T04:36:56.473Z,4.15
2023-04-11T04:40:14.368Z,4.20
2023-04-11T04:43:27.409Z,4.00
2023-04-11T04:46:56.071Z,4.10
2023-04-11T04:50:01.449Z,4.00
2023-04-11T04:53:06.371Z,4.13
2023-04-11T04:56:10.016Z,3.88
2023-04-11T04:59:16.403Z,3.92
2023-04-11T05:02:26.806Z,4.05
2023-04-11T05:05:32.598Z,4.30
2023-04-11T05:08:36.270Z,4.20
2023-04-11T05:11:44.536Z,3.85
2023-04-11T05:14:48.151Z,3.97
2023-04-11T05:17:52.443Z,4.00
2023-04-11T05:20:55.258Z,4.10
2023-04-11T05:24:00.948Z,4.35
2023-04-11T05:27:08.523Z,3.88
2023-04-11T05:30:12.379Z,4.10
2023-04-11T05:33:17.803Z,3.90
2023-04-11T05:36:20.940Z,3.80
2023-04-11T05:39:23.974Z,4.25
2023-04-11T05:42:26.867Z,3.97
2023-04-11T05:45:29.907Z,4.20
2023-04-11T05:48:34.378Z,3.97
2023-04-11T05:51:37.237Z,4.13
2023-04-11T05:54:39.945Z,3.83
2023-04-11T05:57:42.708Z,4.13
2023-04-11T06:00:46.075Z,4.38
2023-04-11T06:03:50.732Z,4.03
2023-04-11T06:06:54.116Z,4.07
2023-04-11T06:09:56.956Z,4.03
2023-04-11T06:13:00.100Z,3.90
2023-04-11T06:16:03.086Z,3.92
2023-04-11T06:19:07.275Z,4.15
2023-04-11T06:22:10.074Z,3.80
2023-04-11T06:25:12.924Z,3.80
2023-04-11T06:28:15.699Z,3.92
2023-04-11T06:31:18.423Z,3.60
2023-04-11T06:34:22.624Z,3.70
2023-04-11T06:37:25.428Z,4.40
2023-04-11T06:40:28.164Z,3.58
2023-04-11T06:43:31.997Z,3.90
2023-04-11T06:46:34.861Z,4.00
2023-04-11T06:49:39.044Z,4.07
2023-04-11T06:52:41.810Z,3.90
2023-04-11T06:55:44.544Z,4.00
2023-04-11T06:58:47.414Z,3.72
2023-04-11T07:01:51.162Z,3.83
2023-04-11T07:04:55.416Z,3.70
2023-04-11T07:07:58.321Z,4.32
2023-04-11T07:11:01.190Z,3.92
2023-04-11T07:14:03.985Z,4.10
2023-04-11T07:17:06.806Z,3.38
2023-04-11T07:20:12.414Z,4.13
2023-04-11T07:23:15.444Z,4.35
2023-04-11T07:26:18.260Z,4.32
2023-04-11T07:29:21.466Z,5.00
2023-04-11T07:32:24.349Z,4.63
2023-04-11T07:35:28.533Z,4.43
2023-04-11T07:38:31.802Z,4.78
2023-04-11T07:41:34.705Z,4.93
2023-04-11T07:44:37.519Z,4.80
2023-04-11T07:47:40.307Z,4.55
2023-04-11T07:50:44.578Z,4.95
2023-04-11T07:53:47.404Z,4.75
2023-04-11T07:56:50.139Z,4.85
2023-04-11T07:59:52.876Z,4.45
2023-04-11T08:02:59.497Z,4.32
2023-04-11T08:06:03.789Z,4.60
2023-04-11T08:09:06.542Z,3.75
2023-04-11T08:12:10.040Z,4.10
2023-04-11T08:15:12.895Z,5.07
2023-04-11T08:18:16.464Z,4.45
2023-04-11T08:21:20.768Z,4.10
2023-04-11T08:24:23.660Z,4.88
2023-04-11T08:27:26.397Z,4.53
2023-04-11T08:30:29.261Z,4.65
2023-04-11T08:33:32.171Z,4.75
2023-04-11T08:36:36.392Z,4.63
2023-04-11T08:39:39.213Z,4.72
2023-04-11T08:42:42.004Z,4.30
2023-04-11T08:45:44.837Z,4.20
2023-04-11T08:48:47.660Z,4.28
2023-04-11T08:51:56.295Z,4.40
2023-04-11T08:54:59.057Z,3.80
2023-04-11T08:58:03.733Z,3.75
2023-04-11T09:01:26.560Z,3.90
2023-04-11T09:04:41.255Z,4.30
2023-04-11T09:07:50.911Z,3.88
2023-04-11T09:11:02.335Z,4.30
2023-04-11T09:14:08.982Z,3.38
2023-04-11T09:17:13.674Z,4.28
2023-04-11T09:20:18.675Z,4.32
2023-04-11T09:23:26.748Z,3.80
2023-04-11T09:26:31.188Z,4.10
2023-04-11T09:29:39.103Z,3.90
2023-04-11T09:32:42.810Z,3.75
2023-04-11T09:35:47.477Z,3.75
2023-04-11T09:38:52.405Z,4.20
2023-04-11T09:41:55.207Z,4.15
2023-04-11T09:44:58.303Z,3.85
2023-04-11T09:48:01.690Z,3.65
2023-04-11T09:51:06.943Z,4.10
2023-04-11T09:54:12.115Z,3.58
2023-04-11T09:57:15.777Z,3.70
2023-04-11T10:00:22.001Z,3.60
2023-04-11T10:03:26.502Z,4.00
2023-04-11T10:06:34.266Z,3.72
2023-04-11T10:09:42.068Z,3.50
2023-04-11T10:12:44.976Z,3.78
2023-04-11T10:16:09.694Z,3.88
2023-04-11T10:19:26.100Z,4.05
2023-04-11T10:23:08.553Z,3.72
2023-04-11T10:26:14.260Z,3.47
2023-04-11T10:29:51.170Z,3.75
2023-04-11T10:33:11.236Z,3.40
2023-04-11T10:36:14.051Z,3.50
2023-04-11T10:39:16.856Z,3.65
2023-04-11T10:42:31.556Z,3.67
2023-04-11T10:45:39.790Z,3.70
2023-04-11T10:48:57.812Z,3.50
2023-04-11T10:52:20.573Z,3.17
2023-04-11T10:55:24.702Z,3.50
2023-04-11T10:58:35.964Z,3.30
2023-04-11T11:04:46.014Z,3.53
2023-04-11T11:07:51.140Z,3.35
2023-04-11T11:10:54.406Z,3.55
2023-04-11T11:14:00.994Z,3.30
2023-04-11T11:17:04.116Z,3.47
2023-04-11T11:20:10.101Z,3.20
2023-04-11T11:23:12.888Z,3.05
2023-04-11T11:26:15.748Z,3.20
2023-04-11T11:29:31.096Z,3.13
2023-04-11T11:32:34.123Z,2.80
2023-04-11T11:35:36.992Z,3.28
2023-04-11T11:38:39.973Z,3.20
2023-04-11T11:41:42.964Z,2.92
2023-04-11T11:44:47.397Z,3.35
2023-04-11T11:47:51.697Z,3.00
2023-04-11T11:50:58.528Z,3.20
2023-04-11T11:54:06.864Z,3.10
2023-04-11T11:57:09.648Z,3.08
2023-04-11T12:00:15.904Z,3.60
2023-04-11T12:03:22.104Z,3.17
2023-04-11T12:06:29.756Z,3.03
2023-04-11T12:09:33.468Z,2.92
2023-04-11T12:12:37.930Z,2.80
2023-04-11T12:15:44.424Z,3.20
2023-04-11T12:18:47.345Z,2.60
2023-04-11T12:21:50.189Z,3.03
2023-04-11T12:24:53.604Z,3.83
2023-04-11T12:27:56.799Z,2.88
2023-04-11T12:31:01.014Z,2.80
2023-04-11T12:34:03.945Z,3.10
2023-04-11T12:37:06.776Z,2.85
2023-04-11T12:40:11.337Z,2.95
2023-04-11T12:43:14.231Z,2.88
2023-04-11T12:46:19.393Z,2.70
2023-04-11T12:49:22.289Z,2.67
2023-04-11T12:52:25.408Z,2.70
2023-04-11T12:55:28.767Z,2.80
2023-04-11T12:58:33.072Z,2.80
2023-04-11T13:01:37.374Z,2.83
2023-04-11T13:04:40.265Z,2.80
2023-04-11T13:07:44.665Z,2.85
2023-04-11T13:10:47.936Z,2.72
2023-04-11T13:13:52.004Z,2.60
2023-04-11T13:16:56.127Z,2.72
2023-04-11T13:19:58.877Z,2.72
2023-04-11T13:23:01.689Z,2.80
2023-04-11T13:26:04.516Z,2.80
2023-04-11T13:29:07.999Z,2.72
2023-04-11T13:32:12.142Z,2.42
2023-04-11T13:35:14.930Z,2.45
2023-04-11T13:38:17.814Z,2.30
2023-04-11T13:41:20.852Z,2.45
2023-04-11T13:44:23.596Z,2.50
2023-04-11T13:47:27.730Z,2.50
2023-04-11T13:57:46.445Z,2.25
2023-04-11T14:00:49.999Z,2.70
2023-04-11T14:03:54.297Z,2.47
2023-04-11T14:06:57.364Z,2.70
2023-04-11T14:10:00.304Z,2.35
2023-04-11T14:13:03.535Z,2.58
2023-04-11T14:16:09.301Z,2.72
2023-04-11T14:19:13.857Z,2.55
2023-04-11T14:22:17.340Z,2.40
2023-04-11T14:25:20.754Z,2.20
2023-04-11T14:28:26.474Z,2.30
2023-04-11T14:31:30.375Z,2.55
2023-04-11T14:34:34.660Z,2.33
2023-04-11T14:37:37.627Z,2.47
2023-04-11T14:40:40.389Z,2.50
2023-04-11T14:43:43.153Z,1.95
2023-04-11T14:46:45.875Z,1.95
2023-04-11T14:49:50.028Z,2.30
2023-04-11T14:52:52.893Z,2.33
2023-04-11T14:55:55.638Z,2.35
2023-04-11T14:58:58.423Z,2.42
2023-04-11T15:02:01.300Z,2.00
2023-04-11T15:05:06.019Z,2.30
2023-04-11T15:08:09.859Z,2.30
2023-04-11T15:11:12.698Z,2.28
2023-04-11T15:14:15.913Z,2.10
2023-04-11T15:17:18.747Z,2.22
2023-04-11T15:20:24.329Z,1.83
2023-04-11T15:23:27.346Z,2.42
2023-04-11T15:26:30.116Z,2.20
2023-04-11T15:29:32.843Z,2.00
2023-04-11T15:32:35.726Z,2.15
2023-04-11T15:35:41.539Z,2.17
2023-04-11T15:38:46.096Z,3.05
2023-04-11T15:41:49.271Z,2.45
2023-04-11T15:44:52.124Z,2.30
2023-04-11T15:47:55.121Z,2.33
2023-04-11T15:50:59.519Z,2.45
2023-04-11T15:54:03.945Z,2.30
2023-04-11T15:57:06.732Z,2.10
2023-04-11T16:00:10.678Z,2.20
2023-04-11T16:03:13.685Z,2.40
2023-04-11T16:06:18.581Z,2.10
2023-04-11T16:09:21.565Z,2.15
2023-04-11T16:12:24.372Z,2.20
2023-04-11T16:15:27.112Z,2.05
2023-04-11T16:18:29.856Z,2.10
2023-04-11T16:21:33.990Z,2.60
2023-04-11T16:24:36.771Z,2.55
2023-04-11T16:27:39.591Z,1.67
2023-04-11T16:30:42.364Z,2.33
2023-04-11T16:33:45.145Z,2.38
2023-04-11T16:36:49.309Z,2.10
2023-04-11T16:39:52.395Z,2.47
2023-04-11T16:42:55.250Z,2.17
2023-04-11T16:45:58.354Z,1.88
2023-04-11T16:49:01.123Z,2.13
2023-04-11T16:52:05.246Z,2.00
2023-04-11T16:55:08.805Z,2.65
2023-04-11T16:58:12.523Z,1.90
2023-04-11T17:01:15.288Z,2.08
2023-04-11T17:04:18.177Z,1.92
2023-04-11T17:07:22.427Z,2.40
2023-04-11T17:10:25.199Z,2.00
2023-04-11T17:13:28.029Z,1.80
2023-04-11T17:16:31.314Z,1.95
2023-04-11T17:38:10.808Z,1.77
2023-04-11T17:41:15.334Z,1.70
2023-04-11T17:44:19.259Z,1.65
2023-04-11T17:47:22.091Z,1.80
2023-04-11T17:50:25.213Z,1.85
2023-04-11T17:53:29.351Z,1.70
2023-04-11T17:56:32.244Z,1.80
2023-04-11T17:59:35.177Z,2.30
2023-04-11T18:02:39.206Z,1.80
2023-04-11T18:05:42.179Z,1.92
2023-04-11T18:08:51.529Z,1.88
2023-04-11T18:11:54.774Z,2.05
2023-04-11T18:14:57.773Z,2.10
2023-04-11T18:18:00.672Z,1.90
2023-04-11T18:21:07.139Z,2.45
2023-04-11T18:24:11.792Z,1.80
2023-04-11T18:27:14.527Z,1.80
2023-04-11T18:30:17.740Z,1.77
2023-04-11T18:33:20.840Z,1.52
2023-04-11T18:36:24.602Z,1.98
2023-04-11T18:39:29.413Z,1.80
2023-04-11T18:42:32.224Z,1.67
2023-04-11T18:45:35.361Z,1.63
2023-04-11T18:48:38.331Z,2.38
2023-04-11T18:51:41.279Z,1.85
2023-04-11T18:54:45.900Z,1.80
2023-04-11T18:57:49.435Z,1.70
2023-04-11T19:00:54.190Z,1.70
2023-04-11T19:03:57.974Z,1.73
2023-04-11T19:07:01.418Z,1.38
2023-04-11T19:10:07.956Z,1.50
2023-04-11T19:13:10.779Z,1.70
2023-04-11T19:16:13.718Z,1.60
2023-04-11T19:19:16.688Z,1.88
2023-04-11T19:22:19.431Z,1.63
2023-04-11T19:25:23.709Z,1.70
2023-04-11T19:28:26.517Z,1.52
2023-04-11T19:31:32.377Z,1.48
2023-04-11T19:34:35.793Z,1.55
2023-04-11T19:37:38.997Z,1.38
2023-04-11T19:40:43.160Z,1.90
2023-04-11T19:43:47.453Z,1.40
2023-04-11T19:46:50.367Z,1.40
2023-04-11T19:49:53.612Z,1.42
2023-04-11T19:52:57.630Z,1.50
2023-04-11T19:56:03.363Z,2.00
2023-04-11T19:59:06.707Z,1.60
2023-04-11T20:02:09.611Z,1.75
2023-04-11T20:05:12.498Z,1.60
2023-04-11T20:08:15.261Z,1.42
2023-04-11T20:11:21.955Z,1.20
2023-04-11T20:14:24.935Z,1.52
2023-04-11T20:17:27.759Z,1.48
2023-04-11T20:20:33.570Z,1.30
2023-04-11T20:23:37.122Z,1.10
2023-04-11T20:26:41.447Z,1.73
2023-04-11T20:29:44.356Z,1.30
2023-04-11T20:32:47.222Z,1.70
2023-04-11T20:35:50.098Z,1.08
2023-04-11T20:38:52.941Z,1.70
2023-04-11T20:41:57.594Z,1.80
2023-04-11T20:45:05.951Z,1.55
2023-04-11T20:48:08.866Z,1.38
2023-04-11T20:51:11.942Z,1.55
2023-04-11T20:54:15.001Z,1.40
2023-04-11T20:57:19.187Z,1.40
2023-04-11T21:00:22.755Z,1.17
2023-04-11T21:03:25.622Z,1.20
2023-04-11T21:06:28.850Z,1.48
2023-04-11T21:09:31.745Z,1.50
2023-04-11T21:12:36.082Z,1.40
2023-04-11T21:15:38.877Z,1.40
2023-04-11T21:18:41.672Z,1.40
2023-04-11T21:21:44.466Z,1.40
2023-04-11T21:24:47.324Z,1.52
2023-04-11T21:27:51.521Z,1.75
2023-04-11T21:30:54.277Z,1.90
2023-04-11T21:33:57.249Z,2.30
2023-04-11T21:37:00.157Z,2.88
2023-04-11T21:40:03.586Z,2.90
2023-04-11T21:43:07.879Z,3.03
2023-04-11T21:46:10.664Z,2.63
2023-04-11T21:49:13.717Z,2.80
2023-04-11T21:52:16.557Z,2.90
2023-04-11T21:55:19.413Z,2.67
2023-04-11T21:58:28.994Z,2.50
2023-04-11T22:01:32.808Z,2.72
2023-04-11T22:04:44.105Z,2.70
2023-04-11T22:08:11.301Z,2.72
2023-04-11T22:11:15.144Z,2.90
2023-04-11T22:14:19.324Z,2.47
2023-04-11T22:17:22.278Z,2.38
2023-04-11T22:20:25.039Z,2.22
2023-04-11T22:23:27.859Z,2.50
2023-04-11T22:26:33.917Z,2.47
2023-04-11T22:29:38.084Z,2.10
2023-04-11T22:32:40.859Z,2.47
2023-04-11T22:35:44.954Z,2.50
2023-04-11T22:38:47.823Z,2.47
2023-04-11T22:41:51.472Z,2.60
2023-04-11T22:44:55.583Z,2.33
2023-04-11T22:48:00.222Z,2.53
2023-04-11T22:51:04.134Z,2.38
2023-04-11T22:54:06.933Z,2.22
2023-04-11T22:57:09.782Z,2.08
2023-04-11T23:00:17.590Z,2.15
2023-04-11T23:03:20.778Z,2.20
2023-04-11T23:06:23.565Z,2.13
2023-04-11T23:09:27.997Z,2.28
2023-04-11T23:12:31.540Z,2.67
2023-04-11T23:15:35.682Z,2.17
2023-04-11T23:18:38.665Z,1.90
2023-04-11T23:21:41.412Z,2.22
2023-04-11T23:24:44.160Z,2.10
2023-04-11T23:27:47.469Z,2.17
2023-04-11T23:30:51.722Z,1.83
2023-04-11T23:33:55.665Z,2.00
2023-04-11T23:36:58.798Z,1.85
2023-04-11T23:40:05.642Z,2.05
2023-04-11T23:43:08.404Z,2.00
2023-04-11T23:46:13.135Z,2.22
2023-04-11T23:49:16.124Z,1.92
2023-04-11T23:52:18.931Z,2.15
2023-04-11T23:55:22.338Z,1.88
